Craigsville, WV

2:35 PM EDT on October 24, 2014 (GMT -0400)
Buckhannon | Change Station
CLOSE
Current Station
Airport
Location: Buckhannon,
Elevation: 498 m
Nearby Weather Stations

Elev 498 m 39.00 °N, 80.27 °W | Updated 40 minutes ago

Partly Cloudy
Partly Cloudy
13 °C
Feels Like 13 °C
N
0
Wind Variable Wind from North

Today
High -- | Low -- °C
--% Chance of Precip.
Yesterday
High -- | Low -- °C
Precip. -- mm
7:40 AM 6:32 PM
New Moon, 1% visible
Pressure 1018 hPa
Visibility 16.1 kilometers
Clouds Clear
Dew Point 5 °C
Humidity 58%
Rainfall 0.0 mm
Snow Depth Not available.
UV 5 out of 12
Pollen .70 out of 12
Air Quality Not available.
Flu Activity Sporadic
METAR KW22 241755Z AUTO 00000KT 10SM CLR 13/05 A3006 RMK AO2

More Conditions Fewer Conditions

Pressure 1018 hPa
Visibility 16.1 kilometers
Clouds Clear
Dew Point 5 °C
Humidity 58%
Rainfall 0.0 mm
Snow Depth Not available.
UV 5 out of 12
Pollen .70 out of 12
Air Quality Not available.
Flu Activity Sporadic
METAR KW22 241755Z AUTO 00000KT 10SM CLR 13/05 A3006 RMK AO2

More Conditions Fewer Conditions

10-Day Weather Forecast

Almanac

Astronomy

Oct. 24, 2014 Rise Set
Actual Time 7:40 AM EDT 6:32 PM EDT
Civil Twilight 7:13 AM EDT 6:59 PM EDT
Nautical Twilight 6:42 AM EDT 7:30 PM EDT
Astronomical Twilight 6:11 AM EDT 8:00 PM EDT
Moon 8:17 AM EDT 7:12 PM EDT
Length of Visible Light 11h 46m
Length of Day
10h 52m
Tomorrow will be 2m 18s shorter.
New Moon, 1% of the Moon is Illuminated
Today
New Moon
Oct 30
First Quarter
Nov 6
Full
Nov 14
Last Quarter
Nov 22
New

Today's Extremes

State Highs State Lows

Community

WunderPhotos

Upload Photos

1,764,632 photos uploaded!

WunderBlogs® & News

Nearby

Snow Depth

Station Depth Elevation
No new snow has been reported.

Earthquake Activity

City Distance Mag. Time & Date
No recent earthquake activity has been reported nearby.
Minimum magnitude displayed is 2.5.

Coastal Water Temperatures

Place Temperature
No Stations Reporting

Nearby Weather Stations